Time;durP1;ratioP1;P1;durP2;ratioP2;P2;SDS_P1;SDS_P2;PMS_P1;PMS_P2;Temp;Humidity;BMP_temperature;BMP_pressure;BME280_temperature;BME280_humidity;BME280_pressure;Samples;Min_cycle;Max_cycle;Signal;HPM_P1;HPM_P2
2022/06/14 00:00:55;;;;;;;5.03;3.30;;;;;;;21.95;39.47;100490.75;4934695;28;20042;-84
2022/06/14 00:03:43;;;;;;;7.97;3.67;;;;;;;21.90;39.72;100491.31;4929938;28;20042;-84
2022/06/14 00:06:15;;;;;;;6.22;3.40;;;;;;;21.87;39.26;100489.84;4923168;28;20130;-84
2022/06/14 00:08:43;;;;;;;8.55;3.90;;;;;;;21.86;39.13;100493.59;4944276;28;20039;-83
2022/06/14 00:11:13;;;;;;;5.72;3.45;;;;;;;21.85;39.60;100488.34;4928695;28;20083;-84
2022/06/14 00:13:39;;;;;;;9.27;3.90;;;;;;;21.82;39.61;100489.59;4928058;28;20055;-84
2022/06/14 00:16:07;;;;;;;7.28;3.60;;;;;;;21.79;39.53;100497.25;4956997;28;20175;-84
2022/06/14 00:18:34;;;;;;;8.65;3.67;;;;;;;21.76;39.55;100490.38;4954200;28;20125;-84
2022/06/14 00:21:01;;;;;;;6.20;3.30;;;;;;;21.72;39.98;100493.66;4957629;23;20207;-83
2022/06/14 00:23:28;;;;;;;5.78;3.60;;;;;;;21.69;39.82;100494.88;4991847;28;20560;-83
2022/06/14 00:25:57;;;;;;;6.43;3.22;;;;;;;21.66;39.60;100492.56;4953892;28;20053;-83
2022/06/14 00:28:26;;;;;;;8.65;3.63;;;;;;;21.63;39.36;100492.94;4997533;28;20044;-86
2022/06/14 00:30:56;;;;;;;8.15;3.63;;;;;;;21.57;39.61;100482.88;4975009;28;20404;-86
2022/06/14 00:33:23;;;;;;;9.45;3.88;;;;;;;21.52;39.57;100486.16;4985034;28;21075;-86
2022/06/14 00:36:00;;;;;;;7.13;3.17;;;;;;;21.44;39.71;100487.09;4988213;28;20120;-85
2022/06/14 00:38:27;;;;;;;6.95;3.72;;;;;;;21.43;39.73;100487.31;4977092;28;20065;-86
2022/06/14 00:40:57;;;;;;;7.35;3.22;;;;;;;21.35;40.04;100490.09;5007119;28;20128;-86
2022/06/14 00:43:26;;;;;;;5.50;4.07;;;;;;;21.29;40.36;100483.56;4987120;28;21430;-85
2022/06/14 00:45:53;;;;;;;7.30;3.55;;;;;;;21.23;40.47;100485.19;4987481;28;20046;-86
2022/06/14 00:48:31;;;;;;;7.60;3.92;;;;;;;21.23;41.14;100484.34;5004410;28;20143;-85
2022/06/14 00:51:10;;;;;;;6.22;4.25;;;;;;;21.19;41.14;100492.00;4973229;28;20132;-86
2022/06/14 00:53:54;;;;;;;6.88;4.03;;;;;;;21.18;41.31;100481.38;4938640;28;20053;-86
2022/06/14 00:56:56;;;;;;;10.75;4.50;;;;;;;21.17;41.32;100485.94;4953835;28;20045;-86
2022/06/14 00:59:27;;;;;;;6.65;3.95;;;;;;;21.18;41.09;100492.19;4945445;28;20483;-86
2022/06/14 01:02:03;;;;;;;8.20;4.20;;;;;;;21.16;41.11;100481.56;4988014;28;20103;-86
2022/06/14 01:04:31;;;;;;;7.53;3.75;;;;;;;21.14;41.05;100480.06;4972692;28;20072;-86
2022/06/14 01:07:13;;;;;;;8.32;4.00;;;;;;;21.10;41.21;100481.50;4971135;28;20054;-86
2022/06/14 01:09:47;;;;;;;6.85;4.13;;;;;;;21.10;41.55;100492.28;4972349;28;20038;-86
2022/06/14 01:12:19;;;;;;;9.15;3.83;;;;;;;21.06;41.35;100494.50;4983164;28;20112;-86
2022/06/14 01:14:46;;;;;;;5.63;3.78;;;;;;;21.03;41.30;100493.03;4974013;28;20072;-86
2022/06/14 01:17:14;;;;;;;5.55;4.07;;;;;;;21.00;41.43;100484.47;5003920;28;20073;-86
2022/06/14 01:19:41;;;;;;;9.60;4.45;;;;;;;20.96;41.35;100491.28;5004942;28;20064;-86
2022/06/14 01:22:08;;;;;;;7.45;4.03;;;;;;;20.93;41.49;100478.97;4977019;28;20044;-85
2022/06/14 01:24:37;;;;;;;11.50;4.15;;;;;;;20.91;41.80;100486.44;5000025;28;20048;-85
2022/06/14 01:27:05;;;;;;;6.82;4.55;;;;;;;20.85;41.40;100487.19;4968136;28;20060;-85
2022/06/14 01:29:33;;;;;;;5.93;3.78;;;;;;;20.83;41.48;100483.84;4990623;28;20500;-86
2022/06/14 01:32:03;;;;;;;5.90;4.05;;;;;;;20.79;41.53;100482.53;4979052;28;20042;-86
2022/06/14 01:34:30;;;;;;;7.38;3.78;;;;;;;20.77;41.65;100480.03;4982082;28;20045;-87
2022/06/14 01:37:03;;;;;;;7.50;4.03;;;;;;;20.76;41.72;100481.06;4951561;28;20107;-86
2022/06/14 01:39:30;;;;;;;5.55;3.97;;;;;;;20.64;41.62;100473.63;4973423;28;20049;-86
2022/06/14 01:42:16;;;;;;;8.25;4.45;;;;;;;20.64;41.88;100481.72;4971607;28;20054;-86
2022/06/14 01:44:51;;;;;;;6.97;3.70;;;;;;;20.60;42.45;100473.97;4934395;28;20251;-86
2022/06/14 01:47:32;;;;;;;5.03;3.80;;;;;;;20.60;42.63;100470.44;4983882;28;20052;-86
2022/06/14 01:54:06;;;;;;;3.65;3.13;;;;;;;20.50;42.64;100481.47;4943374;28;20143;-86
2022/06/14 01:56:58;;;;;;;8.45;3.70;;;;;;;20.45;42.46;100477.66;4854010;28;20049;-86
2022/06/14 01:59:43;;;;;;;5.68;3.50;;;;;;;20.43;42.36;100485.06;4941157;28;20140;-86
2022/06/14 02:02:20;;;;;;;6.90;3.95;;;;;;;20.39;42.36;100490.84;4951844;28;20052;-86
2022/06/14 02:05:00;;;;;;;6.45;3.60;;;;;;;20.34;42.46;100497.81;4970672;28;20041;-86
2022/06/14 02:07:56;;;;;;;6.68;3.88;;;;;;;20.29;42.46;100490.28;4971149;28;20046;-86
2022/06/14 02:10:46;;;;;;;5.82;3.65;;;;;;;20.23;42.87;100499.09;4942684;28;20048;-86
2022/06/14 02:13:18;;;;;;;8.40;4.18;;;;;;;20.21;42.80;100490.34;4936944;28;20056;-86
2022/06/14 02:15:46;;;;;;;7.82;4.00;;;;;;;20.21;42.25;100489.53;4993794;28;20045;-85
2022/06/14 02:18:53;;;;;;;8.07;4.07;;;;;;;20.13;43.27;100485.88;4991259;28;20064;-86
2022/06/14 02:21:33;;;;;;;5.32;3.60;;;;;;;20.11;42.99;100487.06;4883035;28;20141;-86
2022/06/14 02:24:13;;;;;;;7.47;3.78;;;;;;;20.07;43.33;100483.06;4974779;28;20128;-86
2022/06/14 02:26:58;;;;;;;4.00;3.22;;;;;;;20.02;43.41;100490.84;4987431;28;20125;-86
2022/06/14 02:29:31;;;;;;;5.03;3.75;;;;;;;19.98;43.03;100497.66;4957095;28;20042;-86
2022/06/14 02:32:07;;;;;;;6.57;3.70;;;;;;;19.97;43.11;100504.03;4991283;28;20046;-86
2022/06/14 02:34:44;;;;;;;5.20;3.67;;;;;;;19.91;43.82;100508.28;4992703;28;20121;-86
2022/06/14 02:37:18;;;;;;;8.50;3.70;;;;;;;19.91;43.38;100505.59;4976056;28;20049;-86
2022/06/14 02:39:52;;;;;;;7.03;3.33;;;;;;;19.90;43.21;100501.25;4989436;28;20459;-86
2022/06/14 02:42:25;;;;;;;6.63;3.72;;;;;;;19.87;43.65;100501.56;4990781;28;20041;-86
2022/06/14 02:44:57;;;;;;;6.93;3.33;;;;;;;19.86;43.57;100498.06;4980691;28;20384;-86
2022/06/14 02:47:41;;;;;;;4.80;3.38;;;;;;;19.82;43.83;100493.19;4963889;28;20049;-86
2022/06/14 02:50:22;;;;;;;7.65;3.58;;;;;;;19.76;43.90;100502.00;4975800;28;20045;-86
2022/06/14 02:53:17;;;;;;;6.82;3.60;;;;;;;19.73;44.08;100498.66;4978986;28;20049;-86
2022/06/14 02:55:48;;;;;;;9.02;3.60;;;;;;;19.71;43.96;100487.22;4942858;28;20052;-86
2022/06/14 02:58:36;;;;;;;7.38;3.58;;;;;;;19.64;44.35;100494.31;4992462;28;20056;-86
2022/06/14 03:01:29;;;;;;;5.40;3.50;;;;;;;19.61;44.32;100497.34;4944867;28;20051;-86
2022/06/14 03:04:01;;;;;;;3.78;3.38;;;;;;;19.58;43.95;100496.88;4969127;28;20101;-86
2022/06/14 03:07:00;;;;;;;7.35;3.80;;;;;;;19.53;44.31;100492.03;4977525;28;20123;-86
2022/06/14 03:09:32;;;;;;;6.38;3.40;;;;;;;19.50;43.98;100493.22;4933338;28;20049;-86
2022/06/14 03:12:33;;;;;;;8.55;3.60;;;;;;;19.43;44.65;100494.94;4971825;28;20045;-85
2022/06/14 03:15:12;;;;;;;5.15;3.20;;;;;;;19.41;44.45;100488.03;4947359;28;20056;-86
2022/06/14 03:18:03;;;;;;;6.05;3.10;;;;;;;19.36;44.70;100487.75;5007140;28;20044;-86
2022/06/14 03:20:43;;;;;;;9.98;3.90;;;;;;;19.32;44.72;100497.22;4970193;28;20508;-86
2022/06/14 03:23:29;;;;;;;8.65;3.60;;;;;;;19.30;44.70;100495.50;5001622;28;20124;-85
2022/06/14 03:26:01;;;;;;;8.70;3.72;;;;;;;19.28;44.91;100494.00;4943335;28;20076;-85
2022/06/14 03:28:35;;;;;;;8.70;3.33;;;;;;;19.27;44.95;100495.88;5008790;28;20413;-85
2022/06/14 03:31:13;;;;;;;6.22;3.50;;;;;;;19.24;44.91;100490.00;5005658;28;20118;-86
2022/06/14 03:33:49;;;;;;;6.32;3.85;;;;;;;19.21;44.97;100493.03;4973957;28;20037;-85
2022/06/14 03:36:16;;;;;;;6.88;3.63;;;;;;;19.19;45.08;100490.53;4989688;28;20048;-85
2022/06/14 03:38:57;;;;;;;5.30;3.70;;;;;;;19.14;45.42;100500.16;4991099;28;20120;-85
2022/06/14 03:41:26;;;;;;;5.03;3.95;;;;;;;19.13;45.38;100498.47;4958521;28;20515;-86
2022/06/14 03:43:57;;;;;;;5.35;3.42;;;;;;;19.24;45.45;100492.69;4976770;28;20049;-85
2022/06/14 03:46:32;;;;;;;6.25;3.85;;;;;;;19.40;45.66;100494.47;4973700;28;20059;-86
2022/06/14 03:49:06;;;;;;;9.65;3.80;;;;;;;19.49;45.29;100491.56;4959778;28;20045;-85
2022/06/14 03:51:55;;;;;;;7.82;3.85;;;;;;;19.47;44.86;100490.88;4976897;28;20053;-86
2022/06/14 03:54:46;;;;;;;7.43;3.95;;;;;;;19.46;44.45;100491.03;4927152;28;20511;-85
2022/06/14 03:57:13;;;;;;;8.57;3.80;;;;;;;19.56;44.48;100493.50;4957113;28;20057;-85
2022/06/14 04:00:10;;;;;;;7.10;3.85;;;;;;;19.63;44.49;100497.19;4995458;28;20049;-86
2022/06/14 04:03:05;;;;;;;6.97;4.13;;;;;;;19.72;44.33;100494.28;4917895;28;20124;-85
2022/06/14 04:05:42;;;;;;;8.30;3.70;;;;;;;19.80;43.84;100492.56;4921501;28;20399;-86
2022/06/14 04:08:24;;;;;;;7.05;3.50;;;;;;;19.89;43.32;100499.53;4992305;28;20129;-86
2022/06/14 04:11:28;;;;;;;8.35;4.18;;;;;;;19.91;43.54;100500.22;4961675;28;20383;-85
2022/06/14 04:14:16;;;;;;;3.55;3.25;;;;;;;19.97;43.33;100504.03;4918887;28;20048;-85
2022/06/14 04:16:57;;;;;;;7.00;3.85;;;;;;;20.02;43.17;100507.84;4993724;28;20474;-86
2022/06/14 04:19:29;;;;;;;7.38;3.90;;;;;;;20.12;42.77;100507.63;4987543;28;20050;-85
2022/06/14 04:22:02;;;;;;;5.50;3.85;;;;;;;20.14;42.89;100506.41;5009903;28;20064;-84
2022/06/14 04:24:36;;;;;;;7.45;3.75;;;;;;;20.23;42.79;100495.59;4983335;28;20056;-84
2022/06/14 04:27:12;;;;;;;7.93;3.65;;;;;;;20.29;42.57;100505.63;4971905;28;20071;-84
2022/06/14 04:29:50;;;;;;;5.65;3.70;;;;;;;20.31;42.33;100503.59;4944313;28;20185;-84
2022/06/14 04:32:19;;;;;;;8.57;4.20;;;;;;;20.39;42.28;100504.34;4975855;28;20496;-84
2022/06/14 04:34:49;;;;;;;7.10;3.45;;;;;;;20.37;42.35;100505.53;4992658;28;20468;-84
2022/06/14 04:37:24;;;;;;;6.10;3.63;;;;;;;20.41;42.08;100512.25;4993390;28;20053;-84
2022/06/14 04:39:56;;;;;;;8.95;3.78;;;;;;;20.45;42.16;100508.16;4986312;28;20131;-84
2022/06/14 04:42:30;;;;;;;7.03;3.23;;;;;;;20.47;42.00;100506.13;4990275;28;20574;-84
2022/06/14 04:45:13;;;;;;;8.18;3.78;;;;;;;20.56;42.21;100502.34;4925799;28;20079;-84
2022/06/14 04:47:45;;;;;;;7.38;4.18;;;;;;;20.57;42.12;100509.41;4978960;28;20045;-84
2022/06/14 04:50:21;;;;;;;6.78;3.50;;;;;;;20.55;41.78;100502.53;4974832;28;20428;-84
2022/06/14 04:52:54;;;;;;;5.72;3.80;;;;;;;20.59;42.25;100501.97;4973829;28;20080;-84
2022/06/14 04:55:47;;;;;;;8.07;3.55;;;;;;;20.54;42.07;100506.22;4978047;28;20055;-84
2022/06/14 04:58:21;;;;;;;6.70;4.10;;;;;;;20.50;42.08;100496.81;4959499;28;20396;-84
2022/06/14 05:00:58;;;;;;;6.63;3.28;;;;;;;20.38;42.35;100494.59;4948197;28;20049;-84
2022/06/14 05:03:30;;;;;;;5.72;3.75;;;;;;;20.33;42.67;100485.38;4953243;28;20517;-84
2022/06/14 05:06:04;;;;;;;9.80;3.88;;;;;;;20.17;42.27;100489.91;4939743;28;20544;-84
2022/06/14 05:08:37;;;;;;;11.05;3.72;;;;;;;20.13;42.80;100483.19;4938908;28;20055;-84
2022/06/14 05:11:20;;;;;;;8.73;3.80;;;;;;;20.09;42.88;100487.25;4920394;28;20048;-85
2022/06/14 05:13:56;;;;;;;7.65;3.42;;;;;;;20.08;43.02;100490.16;4920681;28;20413;-84
2022/06/14 05:17:03;;;;;;;11.27;4.03;;;;;;;19.96;43.29;100481.63;4933061;28;20039;-84
2022/06/14 05:19:51;;;;;;;9.50;3.95;;;;;;;19.90;43.63;100491.28;4888002;28;20046;-84
2022/06/14 05:22:26;;;;;;;9.18;3.90;;;;;;;19.91;43.27;100484.03;4909389;28;20043;-84
2022/06/14 05:24:53;;;;;;;4.68;3.50;;;;;;;19.87;43.33;100488.97;4918714;28;20051;-85
2022/06/14 05:27:34;;;;;;;7.85;3.80;;;;;;;19.89;44.15;100495.00;4972681;28;20045;-84
2022/06/14 05:30:08;;;;;;;8.88;3.88;;;;;;;19.89;43.83;100492.28;4933164;28;20093;-84
2022/06/14 05:32:56;;;;;;;9.85;3.95;;;;;;;19.91;44.12;100490.25;4969726;28;20046;-84
2022/06/14 05:35:46;;;;;;;5.18;3.60;;;;;;;19.88;44.77;100479.84;4962538;28;22781;-84
2022/06/14 05:38:32;;;;;;;8.00;4.28;;;;;;;19.99;44.88;100477.75;4952394;28;20127;-83
2022/06/14 05:41:02;;;;;;;5.03;3.33;;;;;;;20.09;44.51;100486.41;4956436;28;20042;-83
2022/06/14 05:43:45;;;;;;;6.00;3.67;;;;;;;20.09;44.78;100481.84;4969206;28;20050;-83
2022/06/14 05:46:36;;;;;;;7.57;3.90;;;;;;;20.19;44.57;100483.47;4991777;28;20057;-83
2022/06/14 05:49:04;;;;;;;6.38;3.83;;;;;;;20.29;44.45;100484.06;4975556;28;20436;-83
2022/06/14 05:51:38;;;;;;;11.40;4.13;;;;;;;20.35;44.38;100486.00;4994083;28;20045;-83
2022/06/14 05:54:10;;;;;;;5.72;3.35;;;;;;;20.41;43.54;100481.75;4959213;28;20184;-83
2022/06/14 05:56:56;;;;;;;7.38;3.83;;;;;;;20.44;43.81;100487.59;4954599;28;20125;-84
2022/06/14 05:59:35;;;;;;;9.23;3.60;;;;;;;20.47;43.62;100484.53;4986673;28;20046;-83
2022/06/14 06:02:26;;;;;;;7.63;4.00;;;;;;;20.47;43.63;100489.94;4959634;28;20124;-84
2022/06/14 06:04:58;;;;;;;5.93;3.33;;;;;;;20.59;43.58;100487.66;4955311;28;20584;-84
2022/06/14 06:07:34;;;;;;;10.15;4.10;;;;;;;20.58;43.13;100485.97;4970933;28;20052;-84
2022/06/14 06:10:13;;;;;;;8.48;3.90;;;;;;;20.56;43.22;100488.88;4974956;28;20046;-84
2022/06/14 06:13:17;;;;;;;8.63;3.50;;;;;;;20.59;43.40;100485.78;4983041;28;20085;-84
2022/06/14 06:16:05;;;;;;;8.13;3.60;;;;;;;20.66;43.37;100476.94;4951102;28;20042;-84
2022/06/14 06:18:35;;;;;;;7.63;3.50;;;;;;;20.71;42.67;100478.09;4955529;28;20045;-84
2022/06/14 06:21:20;;;;;;;6.13;3.92;;;;;;;20.67;42.83;100478.63;4996491;23;20180;-81
2022/06/14 06:23:53;;;;;;;12.18;4.35;;;;;;;20.68;42.88;100475.72;4964799;28;20472;-80
2022/06/14 06:26:23;;;;;;;14.13;3.72;;;;;;;20.67;43.09;100471.38;4985043;28;20046;-80
2022/06/14 06:29:01;;;;;;;7.32;4.05;;;;;;;20.55;42.84;100473.69;4982327;28;20045;-80
2022/06/14 06:31:30;;;;;;;5.55;3.42;;;;;;;20.54;43.03;100477.41;4936007;28;20034;-85
2022/06/14 06:34:01;;;;;;;9.98;3.85;;;;;;;20.48;43.22;100470.03;4971514;28;20046;-85
2022/06/14 06:36:57;;;;;;;8.73;3.95;;;;;;;20.47;43.56;100472.91;4978422;28;20046;-87
2022/06/14 06:39:47;;;;;;;5.05;3.28;;;;;;;20.52;43.30;100465.94;4938976;28;20070;-84
2022/06/14 06:42:33;;;;;;;7.88;4.05;;;;;;;20.51;43.41;100471.53;4981053;28;20050;-84
2022/06/14 06:45:04;;;;;;;7.45;4.00;;;;;;;20.60;43.62;100468.56;4965719;28;20053;-80
2022/06/14 06:47:52;;;;;;;8.25;3.67;;;;;;;20.61;43.90;100469.44;4997376;28;20045;-80
2022/06/14 06:50:24;;;;;;;10.18;4.25;;;;;;;20.68;43.51;100467.63;4932641;28;21455;-81
2022/06/14 06:53:11;;;;;;;8.57;4.05;;;;;;;20.65;43.72;100468.00;4997220;28;20042;-80
2022/06/14 06:56:08;;;;;;;9.20;3.80;;;;;;;20.74;43.36;100464.22;4963084;28;20042;-83
2022/06/14 06:58:43;;;;;;;7.53;4.35;;;;;;;20.84;43.37;100458.53;4948012;28;20533;-83
2022/06/14 07:01:14;;;;;;;7.43;4.28;;;;;;;20.90;43.53;100465.03;4979008;28;20061;-83
2022/06/14 07:03:41;;;;;;;7.93;3.95;;;;;;;20.97;43.40;100461.41;4980250;28;20048;-82
2022/06/14 07:06:24;;;;;;;7.55;3.70;;;;;;;20.99;43.80;100456.66;4978317;28;20493;-83
2022/06/14 07:09:00;;;;;;;6.10;4.10;;;;;;;21.02;43.60;100450.88;4938026;28;20050;-81
2022/06/14 07:11:55;;;;;;;10.10;3.90;;;;;;;21.01;43.31;100462.72;4986269;28;20049;-84
2022/06/14 07:14:57;;;;;;;9.73;3.97;;;;;;;21.08;43.14;100456.53;4974371;28;20050;-83
2022/06/14 07:17:37;;;;;;;8.07;4.05;;;;;;;21.17;43.46;100458.94;4923421;28;20050;-84
2022/06/14 07:20:13;;;;;;;6.93;3.75;;;;;;;21.17;43.42;100461.66;4944116;28;20038;-86
2022/06/14 07:22:44;;;;;;;8.77;4.10;;;;;;;21.20;43.72;100457.72;4958329;28;20386;-83
2022/06/14 07:25:13;;;;;;;11.20;4.20;;;;;;;21.17;43.72;100458.13;5000086;28;20478;-82
2022/06/14 07:27:46;;;;;;;8.25;4.10;;;;;;;21.19;43.41;100454.19;4982484;28;20050;-84
2022/06/14 07:30:22;;;;;;;10.15;4.20;;;;;;;21.23;43.29;100450.06;4984293;28;20062;-88
2022/06/14 07:32:51;;;;;;;6.53;3.92;;;;;;;21.29;43.30;100451.16;4981056;28;20100;-85
2022/06/14 07:35:37;;;;;;;9.18;3.80;;;;;;;21.34;42.74;100453.28;4974851;28;20038;-85
2022/06/14 07:38:21;;;;;;;8.40;3.70;;;;;;;21.43;43.03;100455.72;4957279;28;20406;-88
2022/06/14 07:41:24;;;;;;;8.32;4.18;;;;;;;21.43;43.44;100450.31;4949930;28;20049;-88
2022/06/14 07:43:55;;;;;;;8.52;4.22;;;;;;;21.48;43.66;100457.03;4925987;28;20112;-87
2022/06/14 07:46:29;;;;;;;11.25;3.95;;;;;;;21.52;43.01;100453.72;4952280;28;20074;-88
2022/06/14 07:49:11;;;;;;;7.78;3.67;;;;;;;21.54;43.01;100445.44;4963603;28;20042;-83
2022/06/14 07:51:46;;;;;;;10.87;4.47;;;;;;;21.63;43.22;100452.41;4921374;28;20077;-82
2022/06/14 07:54:16;;;;;;;6.22;3.53;;;;;;;21.63;42.81;100455.09;4980942;28;20129;-83
2022/06/14 07:56:51;;;;;;;10.85;4.65;;;;;;;21.54;43.07;100448.97;4958557;28;20229;-83
2022/06/14 07:59:22;;;;;;;7.22;4.45;;;;;;;21.59;43.33;100445.69;4950936;28;20042;-85
2022/06/14 08:02:06;;;;;;;8.43;3.88;;;;;;;21.63;42.68;100441.59;4982931;28;20045;-85
2022/06/14 08:04:45;;;;;;;7.30;3.60;;;;;;;21.62;41.93;100442.59;4966850;28;20116;-85
2022/06/14 08:07:15;;;;;;;7.32;3.78;;;;;;;21.75;42.22;100441.91;4965062;28;20422;-85
2022/06/14 08:09:52;;;;;;;7.28;3.13;;;;;;;21.75;41.73;100439.19;4983674;28;20248;-86
2022/06/14 08:12:31;;;;;;;7.40;3.50;;;;;;;21.71;39.82;100432.53;5004327;28;20045;-85
2022/06/14 08:15:03;;;;;;;4.18;2.88;;;;;;;21.74;39.23;100430.25;4981619;28;20409;-82
2022/06/14 08:17:37;;;;;;;5.65;3.00;;;;;;;21.77;39.48;100420.91;4998825;28;20045;-82
2022/06/14 08:20:22;;;;;;;10.48;3.95;;;;;;;21.82;39.63;100418.47;4984342;28;20148;-82
2022/06/14 08:22:59;;;;;;;9.38;3.90;;;;;;;21.81;40.30;100424.91;4944329;28;20056;-83
2022/06/14 08:25:29;;;;;;;9.23;3.85;;;;;;;21.84;40.15;100424.50;4986891;28;20042;-83
2022/06/14 08:28:12;;;;;;;6.22;3.67;;;;;;;21.79;41.21;100422.41;5003865;28;20042;-80
2022/06/14 08:30:48;;;;;;;5.70;3.50;;;;;;;21.83;41.16;100420.13;4963086;28;20491;-80
2022/06/14 08:33:28;;;;;;;7.05;3.92;;;;;;;21.82;40.83;100413.88;4988036;28;20517;-80
2022/06/14 08:35:58;;;;;;;5.53;3.85;;;;;;;21.88;40.84;100418.53;5003717;28;20069;-80
2022/06/14 08:38:32;;;;;;;7.75;3.65;;;;;;;21.86;40.35;100414.34;4993386;28;20057;-81
2022/06/14 08:41:09;;;;;;;10.13;3.90;;;;;;;21.89;39.65;100414.78;4987568;28;20069;-80
2022/06/14 08:43:49;;;;;;;6.00;3.45;;;;;;;21.93;40.36;100415.25;4975460;28;20038;-81
2022/06/14 08:46:21;;;;;;;8.93;3.60;;;;;;;21.94;38.53;100414.19;4967300;28;20156;-81
2022/06/14 08:49:08;;;;;;;7.40;3.65;;;;;;;21.88;39.06;100404.19;5001716;28;20053;-82
2022/06/14 08:52:14;;;;;;;13.07;4.57;;;;;;;21.94;39.21;100414.19;4973379;28;20129;-81
2022/06/14 08:55:18;;;;;;;6.75;3.45;;;;;;;21.94;39.14;100413.38;4951521;28;20516;-80
2022/06/14 08:58:00;;;;;;;6.28;3.50;;;;;;;21.99;40.40;100409.03;4981443;28;20437;-81
2022/06/14 09:00:58;;;;;;;8.67;3.60;;;;;;;21.99;41.05;100408.22;4986027;28;20057;-81
2022/06/14 09:03:33;;;;;;;8.15;3.58;;;;;;;22.15;40.13;100405.19;4936228;28;20445;-82
2022/06/14 09:06:38;;;;;;;8.30;4.05;;;;;;;22.08;38.73;100404.31;4996579;28;20494;-82
2022/06/14 09:09:32;;;;;;;8.15;4.05;;;;;;;22.16;38.54;100411.44;4958492;28;20038;-82
2022/06/14 09:12:31;;;;;;;8.82;3.63;;;;;;;22.19;38.70;100411.94;5007071;28;20440;-83
2022/06/14 09:15:35;;;;;;;6.80;3.70;;;;;;;22.07;38.24;100402.66;4974195;28;20112;-81
2022/06/14 09:18:26;;;;;;;7.57;3.58;;;;;;;22.10;37.68;100402.25;4931922;28;20702;-83
2022/06/14 09:20:59;;;;;;;9.45;3.70;;;;;;;22.20;38.30;100402.75;4925032;28;20486;-89
2022/06/14 09:24:11;;;;;;;5.65;3.65;;;;;;;22.25;38.34;100400.31;4970329;28;20057;-84
2022/06/14 09:26:57;;;;;;;7.78;3.55;;;;;;;22.29;36.67;100387.22;4947463;28;20132;-83
2022/06/14 09:29:36;;;;;;;13.07;3.78;;;;;;;22.30;36.74;100388.88;4982828;28;20050;-82
2022/06/14 09:33:09;;;;;;;6.78;4.00;;;;;;;22.18;36.40;100391.28;4971111;28;20051;-85
2022/06/14 09:35:51;;;;;;;8.60;3.47;;;;;;;22.19;37.26;100376.75;4965194;28;20049;-86
2022/06/14 09:38:36;;;;;;;10.38;3.95;;;;;;;22.32;37.34;100384.13;4924066;28;20209;-86
2022/06/14 09:41:12;;;;;;;9.32;3.80;;;;;;;22.34;35.98;100387.47;4960964;28;20049;-84
2022/06/14 09:44:02;;;;;;;9.07;3.85;;;;;;;22.35;36.92;100382.88;4994697;28;20072;-86
2022/06/14 09:46:50;;;;;;;6.50;2.95;;;;;;;22.35;36.37;100378.31;4947111;28;20533;-85
2022/06/14 09:49:49;;;;;;;10.73;3.60;;;;;;;22.41;36.62;100388.31;4975008;28;20096;-87
2022/06/14 09:52:31;;;;;;;6.85;3.38;;;;;;;22.43;36.21;100382.72;4967590;28;20038;-84
2022/06/14 09:55:19;;;;;;;7.18;3.80;;;;;;;22.55;37.33;100383.81;4961270;28;20137;-83
2022/06/14 09:57:45;;;;;;;6.50;3.55;;;;;;;22.62;36.60;100382.00;4977159;28;20048;-84
2022/06/14 10:00:25;;;;;;;7.35;3.13;;;;;;;22.57;36.09;100379.06;4995723;28;20053;-82
2022/06/14 10:03:10;;;;;;;6.70;3.75;;;;;;;22.52;36.37;100365.28;4964521;28;20129;-82
2022/06/14 10:06:12;;;;;;;6.35;3.22;;;;;;;22.51;35.52;100359.00;4977547;28;20050;-82
2022/06/14 10:08:52;;;;;;;9.55;3.67;;;;;;;22.58;36.78;100363.66;4944845;28;20505;-82
2022/06/14 10:11:37;;;;;;;9.85;4.03;;;;;;;22.68;36.12;100362.22;4952372;28;20077;-81
2022/06/14 10:14:26;;;;;;;5.63;3.15;;;;;;;22.58;35.97;100358.22;4969788;28;20041;-82
2022/06/14 10:16:57;;;;;;;10.07;4.07;;;;;;;22.66;36.96;100352.63;4996741;28;20993;-82
2022/06/14 10:20:10;;;;;;;8.98;3.95;;;;;;;22.60;35.14;100350.75;4974617;28;20042;-85
2022/06/14 10:23:07;;;;;;;8.68;3.28;;;;;;;22.63;36.27;100343.03;4922817;28;20051;-88
2022/06/14 10:28:45;;;;;;;5.85;3.42;;;;;;;22.80;35.48;100335.41;4927888;28;20041;-86
2022/06/14 10:31:37;;;;;;;6.47;3.55;;;;;;;22.84;35.96;100339.38;4982749;28;20038;-86
2022/06/14 10:34:41;;;;;;;7.22;3.60;;;;;;;22.87;35.16;100341.69;4935126;28;20156;-86
2022/06/14 10:37:21;;;;;;;7.65;3.83;;;;;;;22.87;34.38;100340.84;4959870;28;20561;-86
2022/06/14 10:40:05;;;;;;;5.82;3.10;;;;;;;22.71;34.46;100334.75;4967775;28;20070;-88
2022/06/14 10:43:04;;;;;;;7.43;3.47;;;;;;;22.69;34.09;100325.97;4953022;28;20038;-87
2022/06/14 10:45:39;;;;;;;5.90;3.53;;;;;;;22.77;34.38;100322.28;4943970;28;20046;-88
2022/06/14 10:48:34;;;;;;;8.15;3.65;;;;;;;22.74;34.40;100323.53;4996861;28;20454;-87
2022/06/14 10:51:22;;;;;;;5.75;3.40;;;;;;;22.90;35.21;100330.44;4969365;28;20046;-86
2022/06/14 10:53:59;;;;;;;6.55;3.25;;;;;;;22.92;35.22;100322.97;4988329;28;20051;-86
2022/06/14 10:56:51;;;;;;;9.77;3.65;;;;;;;22.80;34.92;100318.34;4984650;28;20567;-87
2022/06/14 11:03:21;;;;;;;7.20;3.40;;;;;;;22.81;34.86;100307.28;4944843;28;20046;-84
2022/06/14 11:06:17;;;;;;;5.93;3.30;;;;;;;22.88;34.72;100313.56;4981023;28;20046;-82
2022/06/14 11:08:52;;;;;;;7.53;3.35;;;;;;;22.98;34.38;100302.38;4971467;28;20148;-83
2022/06/14 11:11:28;;;;;;;6.30;3.50;;;;;;;22.99;34.60;100305.91;4997824;28;20047;-83
2022/06/14 11:14:13;;;;;;;6.45;3.80;;;;;;;22.98;33.83;100302.38;4973669;28;20413;-83
2022/06/14 11:17:18;;;;;;;6.93;3.13;;;;;;;23.02;33.56;100300.91;4971105;28;20092;-83
2022/06/14 11:20:10;;;;;;;7.18;3.58;;;;;;;22.99;33.22;100305.91;4948267;28;20099;-83
2022/06/14 11:22:45;;;;;;;6.93;3.42;;;;;;;23.06;33.35;100304.88;4971562;28;20117;-87
2022/06/14 11:25:27;;;;;;;7.47;3.40;;;;;;;23.04;33.29;100292.59;4968458;28;20046;-84
2022/06/14 11:28:22;;;;;;;5.80;3.80;;;;;;;23.07;33.21;100295.69;4954786;28;20100;-85
2022/06/14 11:31:03;;;;;;;7.65;3.75;;;;;;;23.08;33.54;100286.56;4947116;28;20038;-84
2022/06/14 11:33:48;;;;;;;7.68;3.47;;;;;;;23.14;33.98;100285.72;4992888;28;20043;-84
2022/06/14 11:36:34;;;;;;;7.22;3.83;;;;;;;23.20;34.95;100281.34;4986717;28;20162;-84
2022/06/14 11:39:35;;;;;;;7.45;3.47;;;;;;;23.21;34.56;100280.31;4986659;28;20050;-87
2022/06/14 11:42:06;;;;;;;6.22;3.33;;;;;;;23.25;34.40;100280.72;4990913;28;20046;-86
2022/06/14 11:45:03;;;;;;;17.53;3.60;;;;;;;23.27;34.21;100282.19;4988321;28;20053;-86
2022/06/14 11:47:39;;;;;;;8.82;3.90;;;;;;;23.34;33.97;100274.06;4951934;28;20034;-86
2022/06/14 11:50:25;;;;;;;7.35;3.53;;;;;;;23.31;34.22;100271.78;4999345;28;20046;-83
2022/06/14 11:52:54;;;;;;;7.40;3.50;;;;;;;23.40;34.16;100265.06;4954773;28;20050;-83
2022/06/14 11:55:33;;;;;;;6.38;3.60;;;;;;;23.39;33.82;100260.72;4982481;28;20049;-83
2022/06/14 12:03:01;;;;;;;8.90;3.65;;;;;;;23.39;34.22;100258.00;4957953;28;20478;-83
2022/06/14 12:05:59;;;;;;;6.45;3.65;;;;;;;23.46;34.11;100252.56;4967866;28;20137;-83
2022/06/14 12:08:58;;;;;;;7.93;3.42;;;;;;;23.41;32.67;100247.78;4941661;28;20466;-83
2022/06/14 12:12:04;;;;;;;5.28;2.90;;;;;;;23.45;32.06;100240.91;4963398;28;20050;-83
2022/06/14 12:14:59;;;;;;;4.43;3.17;;;;;;;23.50;32.47;100232.97;4991129;28;20065;-83
2022/06/14 12:17:43;;;;;;;9.10;3.53;;;;;;;23.46;33.26;100226.31;5004896;28;20486;-83
2022/06/14 12:20:19;;;;;;;8.50;4.05;;;;;;;23.58;34.09;100234.63;4976549;28;20126;-83
2022/06/14 12:23:07;;;;;;;6.22;3.20;;;;;;;23.56;33.17;100232.13;4961066;28;20056;-83
2022/06/14 12:28:39;;;;;;;6.10;3.40;;;;;;;23.73;33.28;100237.13;4970102;28;20046;-84
2022/06/14 12:31:35;;;;;;;9.07;3.70;;;;;;;23.68;33.56;100226.88;4939342;28;20501;-86
2022/06/14 12:34:08;;;;;;;8.50;3.25;;;;;;;23.81;33.95;100229.63;4939809;28;20053;-85
2022/06/14 12:37:13;;;;;;;7.50;3.65;;;;;;;23.86;34.21;100223.53;4977936;28;20044;-84
2022/06/14 12:39:47;;;;;;;9.32;3.90;;;;;;;24.03;33.99;100224.72;4988137;28;20124;-86
2022/06/14 12:42:52;;;;;;;7.60;3.78;;;;;;;24.03;33.64;100218.47;4970810;28;20501;-84
2022/06/14 12:45:28;;;;;;;7.07;3.00;;;;;;;24.08;34.07;100212.41;4973347;28;20050;-84